Terminal Aerodrome Forecast
Issued by NWS Twin Cities, MN

Home | Current Version | Previous Version | Graphics & Text | Print | Product List | Glossary On
Versions: 1 2 3 4 5 6 7 8 9 10 11 12 13 14 15 16 17 18 19 20
000
FTUS43 KMPX 191510 AAA
TAFEAU
TAF AMD
KEAU 191510Z 1915/2012 03015KT P6SM OVC040
     FM191600 03015KT 4SM -FZRASN OVC025
     FM191700 04012KT 3SM -FZRASN OVC015
     FM200000 04010KT P6SM VCSH OVC010
     FM200600 04008KT P6SM OVC010
     FM201000 04007KT 2SM -FZRASN OVC010=

USA.gov is the U.S. government's official web portal to all federal, state and local government web resources and services.